Time;durP1;ratioP1;P1;durP2;ratioP2;P2;SDS_P1;SDS_P2;PMS_P1;PMS_P2;Temp;Humidity;BMP_temperature;BMP_pressure;BME280_temperature;BME280_humidity;BME280_pressure;Samples;Min_cycle;Max_cycle;Signal;HPM_P1;HPM_P2
2022/09/10 00:01:59;;;;;;;;;4.50;3.00;;;;;16.80;70.31;101060.31;4993160;28;45395;-43
2022/09/10 00:04:25;;;;;;;;;3.25;2.50;;;;;16.86;70.38;101065.84;4994212;28;45348;-44
2022/09/10 00:06:50;;;;;;;;;4.75;3.75;;;;;16.84;70.80;101073.22;5009680;28;45272;-43
2022/09/10 00:09:16;;;;;;;;;3.50;3.00;;;;;16.83;70.86;101074.25;4993891;28;46259;-44
2022/09/10 00:11:42;;;;;;;;;7.25;3.50;;;;;16.82;70.75;101071.75;4994374;28;45304;-45
2022/09/10 00:14:14;;;;;;;;;8.00;2.75;;;;;16.81;70.71;101078.13;4994424;28;45410;-42
2022/09/10 00:16:40;;;;;;;;;2.00;2.00;;;;;16.80;71.05;101076.44;4994144;28;45447;-44
2022/09/10 00:19:06;;;;;;;;;4.25;2.00;;;;;16.78;70.91;101075.81;4993979;28;46167;-43
2022/09/10 00:21:31;;;;;;;;;3.75;2.25;;;;;16.76;71.03;101070.59;4994021;28;45465;-46
2022/09/10 00:23:57;;;;;;;;;3.00;2.00;;;;;16.77;71.03;101071.44;4994126;28;45257;-42
2022/09/10 00:26:26;;;;;;;;;4.00;2.75;;;;;16.76;70.95;101069.75;4994298;28;45416;-42
2022/09/10 00:28:53;;;;;;;;;3.25;3.25;;;;;16.76;70.88;101075.13;4993807;28;45524;-45
2022/09/10 00:31:20;;;;;;;;;1.75;0.00;;;;;16.68;70.42;101058.00;4993615;28;45437;-43
2022/09/10 00:33:46;;;;;;;;;2.00;1.25;;;;;16.65;70.74;101053.03;4993980;28;45430;-44
2022/09/10 00:36:23;;;;;;;;;3.00;2.00;;;;;16.75;70.59;101063.56;4994227;28;45343;-43
2022/09/10 00:38:49;;;;;;;;;2.50;1.50;;;;;16.63;70.91;101041.59;4993318;28;47141;-44
2022/09/10 00:41:17;;;;;;;;;3.75;2.00;;;;;16.65;71.11;101042.28;5008919;28;45359;-43
2022/09/10 00:43:59;;;;;;;;;5.00;1.00;;;;;16.75;70.66;101052.81;4993640;28;45400;-44
2022/09/10 00:46:25;;;;;;;;;1.00;1.00;;;;;16.75;71.07;101063.56;4993769;28;45424;-43
2022/09/10 00:48:52;;;;;;;;;4.00;2.00;;;;;16.74;71.04;101061.88;4993645;28;46333;-44
2022/09/10 00:51:18;;;;;;;;;2.50;1.50;;;;;16.74;70.77;101058.38;4993538;28;45395;-43
2022/09/10 00:53:44;;;;;;;;;3.00;1.00;;;;;16.72;71.16;101058.50;4994379;28;45476;-44
2022/09/10 00:56:10;;;;;;;;;2.75;1.50;;;;;16.64;71.15;101053.19;4994588;28;45490;-43
2022/09/10 00:58:35;;;;;;;;;1.00;1.00;;;;;16.70;71.08;101050.63;4994194;28;45385;-41
2022/09/10 01:01:01;;;;;;;;;3.50;1.25;;;;;16.68;70.90;101057.19;4993919;28;45339;-47
2022/09/10 01:03:31;;;;;;;;;2.75;1.00;;;;;16.69;71.10;101053.50;4993878;28;45444;-47
2022/09/10 01:05:57;;;;;;;;;2.50;2.00;;;;;16.69;71.16;101057.03;4993696;28;45297;-44
2022/09/10 01:08:23;;;;;;;;;2.75;1.50;;;;;16.56;71.22;101034.44;4992378;28;45528;-45
2022/09/10 01:11:16;;;;;;;;;3.50;1.00;;;;;16.69;71.09;101058.88;4993256;28;45423;-45
2022/09/10 01:14:23;;;;;;;;;4.00;1.00;;;;;16.69;71.14;101043.59;4993444;28;45377;-44
2022/09/10 01:17:10;;;;;;;;;5.00;1.00;;;;;16.67;71.11;101045.59;4979138;28;45680;-47
2022/09/10 01:19:50;;;;;;;;;1.00;1.00;;;;;16.67;70.83;101047.47;4996349;28;46011;-47
2022/09/10 01:22:33;;;;;;;;;1.00;1.00;;;;;16.65;71.10;101047.66;4996259;28;45386;-43
2022/09/10 01:25:08;;;;;;;;;4.75;2.75;;;;;16.64;71.21;101046.00;4996495;28;45494;-46
2022/09/10 01:27:43;;;;;;;;;2.00;2.00;;;;;16.61;71.49;101042.81;4996462;28;45177;-47
2022/09/10 01:30:13;;;;;;;;;3.25;2.00;;;;;16.61;71.50;101051.72;4996166;28;46006;-49
2022/09/10 01:33:03;;;;;;;;;2.00;2.00;;;;;16.63;71.26;101060.41;4997252;28;45489;-47
2022/09/10 01:35:43;;;;;;;;;3.50;1.50;;;;;16.61;71.65;101057.09;4996211;28;45447;-43
2022/09/10 01:38:19;;;;;;;;;1.00;1.00;;;;;16.54;71.59;101053.44;5011610;28;45425;-43
2022/09/10 01:40:45;;;;;;;;;2.25;1.00;;;;;16.62;71.78;101064.13;4995588;28;46215;-47
2022/09/10 01:43:11;;;;;;;;;1.75;1.50;;;;;16.60;71.69;101063.47;4995979;28;45431;-43
2022/09/10 01:45:49;;;;;;;;;2.00;2.00;;;;;16.60;71.63;101059.94;4996160;28;45240;-49
2022/09/10 01:48:42;;;;;;;;;2.50;2.50;;;;;16.58;71.67;101068.16;4996154;28;45460;-50
2022/09/10 01:51:37;;;;;;;;;4.50;1.75;;;;;16.57;71.87;101065.69;4995830;28;45266;-48
2022/09/10 01:54:25;;;;;;;;;2.75;2.00;;;;;16.56;71.65;101055.91;4995927;28;45393;-43
2022/09/10 01:57:15;;;;;;;;;6.75;3.00;;;;;16.55;71.81;101065.84;4995998;28;45402;-44
2022/09/10 02:00:08;;;;;;;;;2.50;2.50;;;;;16.43;72.24;101043.09;4996220;28;45365;-46
2022/09/10 02:02:43;;;;;;;;;2.00;1.75;;;;;16.56;71.51;101066.66;4995666;28;46229;-50
2022/09/10 02:05:10;;;;;;;;;1.50;1.00;;;;;16.57;71.93;101073.72;4995786;28;45344;-43
2022/09/10 02:07:38;;;;;;;;;4.25;1.75;;;;;16.55;71.75;101059.63;4995815;28;45258;-44
2022/09/10 02:10:07;;;;;;;;;4.00;2.00;;;;;16.56;72.00;101059.47;4995885;28;45448;-49
2022/09/10 02:12:33;;;;;;;;;2.25;2.25;;;;;16.58;71.85;101065.47;4995433;28;45541;-48
2022/09/10 02:14:59;;;;;;;;;3.75;2.00;;;;;16.52;71.87;101046.56;4995663;28;45463;-48
2022/09/10 02:17:30;;;;;;;;;3.25;2.25;;;;;16.58;71.82;101057.44;4995745;28;45528;-46
2022/09/10 02:19:57;;;;;;;;;4.00;2.00;;;;;16.59;71.17;101061.78;4995807;28;45165;-46
2022/09/10 02:22:23;;;;;;;;;3.00;1.00;;;;;16.56;71.67;101064.84;4995482;28;46429;-44
2022/09/10 02:24:49;;;;;;;;;1.00;1.00;;;;;16.56;71.84;101059.47;4994519;28;45347;-43
2022/09/10 02:27:15;;;;;;;;;1.25;1.25;;;;;16.56;71.65;101061.28;4995547;28;45252;-46
2022/09/10 02:29:41;;;;;;;;;3.25;3.00;;;;;16.56;71.53;101058.59;5010769;28;45409;-48
2022/09/10 02:32:08;;;;;;;;;2.00;2.00;;;;;16.57;71.61;101058.44;4995352;28;46304;-46
2022/09/10 02:34:35;;;;;;;;;2.00;2.00;;;;;16.59;71.36;101061.78;4995255;28;45351;-46
2022/09/10 02:37:02;;;;;;;;;3.00;2.00;;;;;16.61;71.44;101061.63;4995629;28;45349;-44
2022/09/10 02:39:28;;;;;;;;;2.75;2.75;;;;;16.61;71.29;101059.78;5010533;28;45375;-49
2022/09/10 02:41:54;;;;;;;;;1.50;1.00;;;;;16.64;71.21;101055.88;4995339;28;45337;-44
2022/09/10 02:44:20;;;;;;;;;1.50;1.50;;;;;16.65;71.13;101058.41;4995429;28;45469;-48
2022/09/10 02:46:45;;;;;;;;;5.00;2.75;;;;;16.68;70.76;101063.38;4995341;28;45255;-45
2022/09/10 02:49:10;;;;;;;;;2.50;1.00;;;;;16.69;71.13;101059.72;4995584;28;45471;-44
2022/09/10 02:51:37;;;;;;;;;2.75;2.50;;;;;16.70;71.21;101063.22;4995207;28;45521;-47
2022/09/10 02:54:03;;;;;;;;;2.00;1.50;;;;;16.70;71.06;101064.06;4995391;28;45338;-45
2022/09/10 02:56:28;;;;;;;;;4.50;1.00;;;;;16.70;71.02;101069.44;4995480;28;45340;-45
2022/09/10 02:58:53;;;;;;;;;4.00;2.00;;;;;16.68;71.17;101063.38;4995457;28;45409;-49
2022/09/10 03:01:21;;;;;;;;;1.75;1.00;;;;;16.77;70.69;101071.44;4995087;28;45288;-43
2022/09/10 03:03:53;;;;;;;;;4.75;3.00;;;;;16.80;70.90;101082.66;4994840;28;45348;-43
2022/09/10 03:06:20;;;;;;;;;4.00;2.00;;;;;16.83;70.32;101082.31;4995250;28;45360;-43
2022/09/10 03:08:46;;;;;;;;;6.75;2.25;;;;;16.83;70.41;101068.88;4995319;28;45461;-50
2022/09/10 03:11:15;;;;;;;;;3.50;2.25;;;;;16.78;70.42;101070.44;4994825;28;47002;-43
2022/09/10 03:13:41;;;;;;;;;5.50;1.25;;;;;16.91;70.53;101086.78;4995126;28;45511;-48
2022/09/10 03:16:08;;;;;;;;;2.75;1.50;;;;;16.90;70.75;101071.69;4995217;28;45417;-42
2022/09/10 03:18:34;;;;;;;;;5.00;2.00;;;;;16.93;70.24;101077.50;4995005;28;45395;-41
2022/09/10 03:21:17;;;;;;;;;4.50;2.25;;;;;16.94;70.22;101073.84;4994852;28;46407;-44
2022/09/10 03:23:46;;;;;;;;;2.00;2.00;;;;;16.93;70.29;101069.44;4994771;28;45180;-42
2022/09/10 03:26:14;;;;;;;;;5.25;2.00;;;;;16.95;70.20;101071.97;4994842;28;45461;-44
2022/09/10 03:28:41;;;;;;;;;3.25;1.75;;;;;16.98;70.14;101060.00;4994917;28;45432;-42
2022/09/10 03:31:07;;;;;;;;;3.00;1.75;;;;;16.95;70.24;101072.81;4994575;28;46367;-42
2022/09/10 03:33:34;;;;;;;;;3.00;1.00;;;;;16.95;70.01;101074.66;4994686;28;45444;-43
2022/09/10 03:36:01;;;;;;;;;5.00;2.00;;;;;16.98;70.02;101078.81;4994456;28;45320;-42
2022/09/10 03:38:27;;;;;;;;;2.25;1.75;;;;;16.98;69.96;101079.69;4995344;27;45564;-43
2022/09/10 03:40:53;;;;;;;;;10.00;2.50;;;;;17.01;70.18;101076.63;4994184;28;46313;-43
2022/09/10 03:43:21;;;;;;;;;3.25;2.00;;;;;16.98;69.80;101068.06;4994429;28;45335;-43
2022/09/10 03:45:50;;;;;;;;;7.25;2.50;;;;;17.06;69.87;101082.28;4994496;28;45336;-41
2022/09/10 03:48:17;;;;;;;;;3.00;2.00;;;;;17.09;69.69;101081.09;4994551;28;45497;-42
2022/09/10 03:50:44;;;;;;;;;5.50;2.00;;;;;17.07;69.74;101075.91;4994381;28;46254;-43
2022/09/10 03:53:11;;;;;;;;;4.25;3.00;;;;;17.11;69.59;101069.16;4994263;28;45477;-43
2022/09/10 03:55:36;;;;;;;;;5.00;3.00;;;;;17.07;69.30;101069.69;4994445;28;45322;-42
2022/09/10 03:58:02;;;;;;;;;3.25;2.50;;;;;17.10;69.24;101072.84;4994470;28;45362;-42
2022/09/10 04:00:27;;;;;;;;;5.00;2.75;;;;;17.09;69.27;101079.22;4994264;28;46236;-42
2022/09/10 04:02:52;;;;;;;;;5.25;3.00;;;;;17.10;69.48;101078.22;4994348;28;45368;-42
2022/09/10 04:05:18;;;;;;;;;9.00;2.00;;;;;17.13;69.30;101077.03;4994157;28;45485;-43
2022/09/10 04:07:44;;;;;;;;;1.50;0.00;;;;;17.07;69.30;101067.84;4994615;28;45211;-41
2022/09/10 04:10:10;;;;;;;;;3.75;2.50;;;;;17.11;69.41;101074.53;4993929;28;45940;-43
2022/09/10 04:12:35;;;;;;;;;3.00;1.00;;;;;17.13;69.04;101077.03;4993992;28;45325;-43
2022/09/10 04:15:03;;;;;;;;;3.25;1.00;;;;;17.17;68.99;101073.78;5009436;28;45263;-43
2022/09/10 04:17:28;;;;;;;;;3.00;1.75;;;;;17.16;69.30;101074.81;4994249;28;45377;-44
2022/09/10 04:19:53;;;;;;;;;1.75;1.00;;;;;17.15;68.83;101070.47;4993946;28;45420;-43
2022/09/10 04:22:19;;;;;;;;;3.75;2.00;;;;;17.16;69.07;101065.91;4993916;28;45428;-43
2022/09/10 04:24:44;;;;;;;;;3.50;2.00;;;;;17.15;69.27;101075.84;4994027;28;45297;-41
2022/09/10 04:27:10;;;;;;;;;2.00;2.00;;;;;17.15;69.27;101075.84;4994271;28;45459;-43
2022/09/10 04:29:36;;;;;;;;;2.75;2.75;;;;;17.15;69.10;101081.22;4993455;28;45941;-42
2022/09/10 04:32:02;;;;;;;;;1.00;1.00;;;;;17.12;69.09;101084.25;4994026;28;45216;-43
2022/09/10 04:34:28;;;;;;;;;3.00;3.00;;;;;17.14;69.22;101084.06;4993823;28;45314;-42
2022/09/10 04:36:53;;;;;;;;;3.75;3.00;;;;;17.13;69.38;101085.91;4994187;28;45354;-41
2022/09/10 04:39:19;;;;;;;;;6.25;2.00;;;;;17.11;69.13;101079.91;4993560;28;45944;-42
2022/09/10 04:41:44;;;;;;;;;3.75;2.00;;;;;17.10;69.54;101082.75;4993745;28;45215;-42
2022/09/10 04:44:09;;;;;;;;;4.75;3.00;;;;;17.09;69.18;101081.09;4993877;28;45214;-42
2022/09/10 04:46:35;;;;;;;;;5.00;2.50;;;;;17.07;69.55;101083.97;4993874;28;45327;-42
2022/09/10 04:49:00;;;;;;;;;3.25;2.00;;;;;16.99;69.65;101069.75;4994885;28;46257;-41
2022/09/10 04:51:26;;;;;;;;;4.50;3.00;;;;;17.07;69.54;101081.28;4996620;28;45340;-42
2022/09/10 04:53:52;;;;;;;;;2.00;2.00;;;;;17.08;69.62;101087.50;4996617;28;45514;-42
2022/09/10 04:56:18;;;;;;;;;1.50;1.50;;;;;17.08;69.57;101093.69;4996994;28;45365;-43
2022/09/10 04:58:44;;;;;;;;;3.00;3.00;;;;;17.04;69.51;101083.50;4996544;28;46966;-43
2022/09/10 05:01:09;;;;;;;;;2.00;2.00;;;;;17.05;69.49;101086.00;4996506;28;45499;-42
2022/09/10 05:03:35;;;;;;;;;3.50;2.00;;;;;17.05;69.88;101093.22;4996469;28;45799;-43
2022/09/10 05:06:00;;;;;;;;;3.00;3.00;;;;;17.05;69.65;101091.38;4996738;28;45409;-45
2022/09/10 05:08:26;;;;;;;;;2.00;2.00;;;;;17.06;69.56;101103.78;4996590;28;45496;-42
2022/09/10 05:10:52;;;;;;;;;2.00;2.00;;;;;17.06;69.49;101101.09;4996505;28;45418;-41
2022/09/10 05:13:17;;;;;;;;;4.00;2.00;;;;;17.06;69.43;101103.78;4996569;28;45331;-43
2022/09/10 05:15:43;;;;;;;;;5.00;3.00;;;;;17.03;69.67;101104.16;4996874;28;45377;-44
2022/09/10 05:18:09;;;;;;;;;2.00;2.00;;;;;17.07;69.82;101115.41;4996320;28;47082;-43
2022/09/10 05:20:35;;;;;;;;;6.00;2.50;;;;;17.07;69.81;101115.41;4996347;28;45492;-44
2022/09/10 05:23:00;;;;;;;;;3.75;2.00;;;;;17.08;69.78;101120.56;4996504;28;45226;-43
2022/09/10 05:25:26;;;;;;;;;3.00;2.00;;;;;17.11;69.63;101125.59;4996427;28;45436;-44
2022/09/10 05:27:52;;;;;;;;;4.00;2.00;;;;;17.11;69.61;101116.72;4996352;28;47178;-44
2022/09/10 05:30:18;;;;;;;;;3.75;2.00;;;;;17.13;69.79;101125.41;4996034;28;45395;-46
2022/09/10 05:32:44;;;;;;;;;4.25;2.00;;;;;17.14;69.56;101127.06;4996097;28;45395;-48
2022/09/10 05:35:09;;;;;;;;;2.50;2.00;;;;;17.13;70.04;101123.56;4996411;28;45293;-45
2022/09/10 05:37:35;;;;;;;;;2.75;2.75;;;;;17.13;69.86;101128.94;4995731;28;46089;-45
2022/09/10 05:40:08;;;;;;;;;3.50;2.75;;;;;17.12;69.89;101126.44;4995714;28;45405;-46
2022/09/10 05:42:34;;;;;;;;;3.00;2.00;;;;;17.11;70.13;101128.28;4996257;28;45311;-45
2022/09/10 05:44:59;;;;;;;;;2.50;2.50;;;;;17.10;69.49;101126.59;4996142;28;45364;-45
2022/09/10 05:47:25;;;;;;;;;2.00;2.00;;;;;17.07;70.08;101126.97;4995953;28;46118;-44
2022/09/10 05:49:50;;;;;;;;;4.75;1.50;;;;;17.10;69.76;101137.34;4995733;28;45374;-48
2022/09/10 05:52:16;;;;;;;;;5.00;3.00;;;;;17.10;69.99;101142.72;4996074;28;45466;-48
2022/09/10 05:54:41;;;;;;;;;2.25;2.25;;;;;17.12;69.74;101147.94;4996241;28;45453;-44
2022/09/10 05:57:06;;;;;;;;;3.00;1.50;;;;;17.15;69.82;101136.81;4995810;28;45378;-44
2022/09/10 05:59:33;;;;;;;;;4.25;3.00;;;;;17.20;69.81;101142.50;4994930;28;45389;-46
2022/09/10 06:01:59;;;;;;;;;6.00;3.00;;;;;17.23;69.53;101146.66;4995596;28;45208;-46
2022/09/10 06:04:25;;;;;;;;;2.25;2.00;;;;;17.23;69.65;101147.50;4995996;28;45416;-46
2022/09/10 06:06:50;;;;;;;;;5.25;2.00;;;;;17.24;69.82;101153.72;4995617;28;45243;-44
2022/09/10 06:09:16;;;;;;;;;4.75;2.00;;;;;17.26;69.63;101157.06;4995485;28;45381;-47
2022/09/10 06:11:41;;;;;;;;;4.25;2.00;;;;;17.24;69.51;101156.44;4995851;28;45502;-48
2022/09/10 06:14:07;;;;;;;;;5.00;2.50;;;;;17.31;69.53;101166.25;4995956;28;45472;-46
2022/09/10 06:16:33;;;;;;;;;4.50;1.25;;;;;17.28;69.41;101169.31;4995654;28;46498;-48
2022/09/10 06:18:58;;;;;;;;;3.00;2.00;;;;;17.31;69.19;101162.72;4995600;28;45304;-45
2022/09/10 06:21:24;;;;;;;;;3.00;3.00;;;;;17.36;69.35;101176.47;4995311;28;45390;-47
2022/09/10 06:23:53;;;;;;;;;2.50;2.50;;;;;17.40;69.38;101172.41;4995747;28;45545;-45
2022/09/10 06:26:19;;;;;;;;;3.50;2.50;;;;;17.42;69.17;101171.22;4995247;28;46837;-45
2022/09/10 06:28:45;;;;;;;;;4.00;2.00;;;;;17.46;68.99;101174.38;4995495;28;45444;-46
2022/09/10 06:31:15;;;;;;;;;3.75;3.75;;;;;17.51;68.90;101184.59;4995633;28;45437;-48
2022/09/10 06:33:42;;;;;;;;;3.50;2.00;;;;;17.51;69.01;101182.75;4995406;28;45440;-45
2022/09/10 06:36:08;;;;;;;;;4.75;1.00;;;;;17.47;68.92;101176.03;4995183;28;45331;-45
2022/09/10 06:38:35;;;;;;;;;2.75;2.00;;;;;17.43;68.63;101180.13;4995138;28;45299;-45
2022/09/10 06:41:04;;;;;;;;;2.50;2.50;;;;;17.40;69.31;101180.47;4995344;28;45352;-48
2022/09/10 06:43:35;;;;;;;;;2.00;2.00;;;;;17.40;69.19;101192.09;4995497;28;45439;-48
2022/09/10 06:46:04;;;;;;;;;5.00;3.50;;;;;17.48;69.12;101193.00;4995062;28;46094;-47
2022/09/10 06:48:30;;;;;;;;;2.00;1.00;;;;;17.64;69.03;101192.88;4996098;28;45374;-48
2022/09/10 06:50:59;;;;;;;;;6.00;3.00;;;;;17.79;71.07;101190.25;4995287;28;45370;-45
2022/09/10 06:53:27;;;;;;;;;2.25;2.00;;;;;18.09;68.26;101185.75;4995359;28;45329;-46
2022/09/10 06:55:54;;;;;;;;;3.00;3.00;;;;;18.23;68.30;101192.97;4994897;28;46089;-46
2022/09/10 06:58:22;;;;;;;;;2.25;2.25;;;;;18.30;66.99;101187.69;4995120;28;45341;-45
2022/09/10 07:00:48;;;;;;;;;4.00;3.25;;;;;18.39;68.17;101187.41;4995238;28;45330;-47
2022/09/10 07:03:15;;;;;;;;;1.75;1.75;;;;;18.54;66.76;101183.84;4995429;28;45493;-45
2022/09/10 07:05:42;;;;;;;;;1.25;1.25;;;;;18.69;65.89;101190.06;4994686;28;47117;-50
2022/09/10 07:08:09;;;;;;;;;2.25;2.00;;;;;18.83;67.26;101191.91;4994829;28;45211;-49
2022/09/10 07:10:36;;;;;;;;;4.50;2.75;;;;;19.05;65.46;101192.78;4995076;28;45397;-47
2022/09/10 07:13:01;;;;;;;;;3.00;1.75;;;;;19.13;64.25;101195.38;4994875;28;45453;-48
2022/09/10 07:15:27;;;;;;;;;7.00;2.25;;;;;19.23;64.93;101208.53;4994686;28;46333;-46
2022/09/10 07:17:53;;;;;;;;;2.00;2.00;;;;;19.28;64.13;101197.16;4994899;28;45355;-47
2022/09/10 07:20:21;;;;;;;;;2.00;2.00;;;;;19.22;63.98;101203.31;4994808;28;45449;-47
2022/09/10 07:22:46;;;;;;;;;5.00;4.00;;;;;19.20;66.17;101209.72;4995313;28;45238;-49
2022/09/10 07:25:12;;;;;;;;;3.00;3.00;;;;;19.20;64.74;101206.19;4994663;28;49202;-48
2022/09/10 07:27:37;;;;;;;;;2.75;2.00;;;;;19.14;64.09;101207.81;4994732;28;45246;-50
2022/09/10 07:30:03;;;;;;;;;3.00;2.50;;;;;19.03;65.13;101202.91;4995081;28;45421;-45
2022/09/10 07:32:32;;;;;;;;;2.50;2.25;;;;;19.13;66.34;101208.84;4995047;28;45361;-47
2022/09/10 07:34:58;;;;;;;;;2.50;2.50;;;;;19.17;64.52;101203.88;4994579;28;47071;-47
2022/09/10 07:37:24;;;;;;;;;2.75;2.75;;;;;19.20;64.56;101211.59;4994566;28;45275;-46
2022/09/10 07:39:50;;;;;;;;;3.00;1.50;;;;;19.29;64.10;101215.00;4994331;28;45435;-45
2022/09/10 07:42:15;;;;;;;;;2.50;2.00;;;;;19.34;63.89;101213.41;4994965;28;45246;-46
2022/09/10 07:44:40;;;;;;;;;2.50;2.25;;;;;19.35;63.32;101206.97;4994547;28;47012;-50
2022/09/10 07:47:06;;;;;;;;;7.00;2.25;;;;;19.53;65.23;101214.63;4994552;28;45339;-46
2022/09/10 07:49:31;;;;;;;;;5.00;3.50;;;;;19.72;63.11;101223.97;4994526;28;45298;-46
2022/09/10 07:51:56;;;;;;;;;3.00;3.00;;;;;19.75;63.24;101220.00;4994542;28;45236;-46
2022/09/10 07:54:23;;;;;;;;;4.50;3.75;;;;;19.73;63.54;101227.47;4994429;28;45902;-49
2022/09/10 07:56:49;;;;;;;;;5.00;2.00;;;;;19.84;63.58;101226.94;4994307;28;45411;-45
2022/09/10 07:59:14;;;;;;;;;3.75;2.00;;;;;19.94;63.80;101235.53;4994420;28;45329;-47
2022/09/10 08:01:40;;;;;;;;;6.00;2.75;;;;;19.95;63.45;101234.50;4994491;28;45312;-46
2022/09/10 08:04:06;;;;;;;;;2.00;2.00;;;;;19.90;62.48;101242.38;4993915;28;46049;-46
2022/09/10 08:06:32;;;;;;;;;2.00;2.00;;;;;19.82;61.94;101237.09;4993941;28;45454;-49
2022/09/10 08:08:58;;;;;;;;;4.00;2.80;;;;;19.82;63.28;101247.91;5009361;28;45371;-47
2022/09/10 08:11:25;;;;;;;;;4.50;3.25;;;;;19.90;63.57;101232.41;4994344;28;45302;-47
2022/09/10 08:13:52;;;;;;;;;2.25;2.25;;;;;20.14;62.52;101244.63;4993929;28;46362;-49
2022/09/10 08:16:23;;;;;;;;;4.40;2.80;;;;;20.18;62.10;101243.19;4993928;28;45406;-45
2022/09/10 08:18:52;;;;;;;;;1.40;1.00;;;;;20.23;62.19;101244.47;4994141;28;45448;-49
2022/09/10 08:21:18;;;;;;;;;2.00;2.00;;;;;20.39;62.15;101250.41;4994229;28;45140;-47
2022/09/10 08:23:49;;;;;;;;;2.50;2.50;;;;;20.40;62.36;101238.56;4994912;28;46001;-47
2022/09/10 08:26:15;;;;;;;;;3.60;3.60;;;;;20.39;61.23;101252.25;4996951;28;45336;-46
2022/09/10 08:28:42;;;;;;;;;2.75;2.00;;;;;20.42;61.14;101249.16;4996928;28;45306;-49
2022/09/10 08:31:10;;;;;;;;;3.75;2.25;;;;;20.39;61.53;101246.84;4997098;28;45607;-49
2022/09/10 08:33:38;;;;;;;;;2.50;2.50;;;;;20.44;61.98;101245.22;4996608;28;46525;-48
2022/09/10 08:36:07;;;;;;;;;2.40;2.00;;;;;20.42;62.30;101243.75;4996838;28;45230;-49
2022/09/10 08:38:35;;;;;;;;;2.80;2.00;;;;;20.47;62.46;101252.09;4997017;28;45444;-44
2022/09/10 08:41:11;;;;;;;;;6.00;2.50;;;;;20.57;61.39;101249.91;4997105;28;45429;-48
2022/09/10 08:43:42;;;;;;;;;5.75;2.75;;;;;20.54;60.15;101253.00;4996764;28;47219;-45
2022/09/10 08:46:29;;;;;;;;;2.40;2.40;;;;;20.57;61.20;101262.59;4996618;28;45550;-50
2022/09/10 08:49:07;;;;;;;;;4.60;3.00;;;;;20.68;61.50;101265.53;4996694;28;45391;-48
2022/09/10 08:51:47;;;;;;;;;3.60;2.00;;;;;20.80;61.59;101267.66;4996904;28;45405;-49
2022/09/10 08:54:24;;;;;;;;;4.40;4.40;;;;;20.95;59.92;101270.25;4996672;28;45461;-47
2022/09/10 08:56:52;;;;;;;;;3.40;2.00;;;;;21.03;59.54;101268.19;4996709;28;45370;-47
2022/09/10 08:59:25;;;;;;;;;6.00;4.00;;;;;21.09;60.50;101261.13;4996736;28;45629;-49
2022/09/10 09:01:58;;;;;;;;;3.20;3.20;;;;;21.09;59.27;101267.38;4997006;28;45309;-44
2022/09/10 09:05:11;;;;;;;;;5.20;1.80;;;;;21.17;60.02;101269.91;4996689;28;45456;-48
2022/09/10 09:07:38;;;;;;;;;5.40;4.00;;;;;21.19;59.00;101275.09;4935535;28;45446;-45
2022/09/10 09:10:23;;;;;;;;;3.00;3.00;;;;;21.24;59.04;101277.19;4935960;28;45359;-48
2022/09/10 09:13:12;;;;;;;;;2.50;2.50;;;;;21.14;59.98;101283.00;4936204;28;45503;-51
2022/09/10 09:15:52;;;;;;;;;7.00;4.60;;;;;20.98;59.80;101267.94;4935749;28;46299;-49
2022/09/10 09:18:31;;;;;;;;;3.80;2.40;;;;;21.08;60.33;101286.53;4935761;28;45478;-48
2022/09/10 09:21:03;;;;;;;;;2.20;2.20;;;;;21.09;59.29;101283.59;4935768;28;45329;-49
2022/09/10 09:23:56;;;;;;;;;2.60;2.00;;;;;21.11;59.65;101281.53;4935784;28;45551;-47
2022/09/10 09:26:33;;;;;;;;;2.80;2.00;;;;;21.19;59.29;101291.31;4957828;28;46405;-45
2022/09/10 09:29:10;;;;;;;;;4.20;2.00;;;;;21.23;59.82;101283.63;4957927;28;45316;-47
2022/09/10 09:31:46;;;;;;;;;3.40;3.00;;;;;21.29;59.02;101288.25;4958131;28;45387;-46
2022/09/10 09:34:22;;;;;;;;;3.40;2.00;;;;;21.35;58.67;101290.16;4958265;28;45552;-48
2022/09/10 09:36:51;;;;;;;;;3.00;3.00;;;;;21.43;59.02;101293.50;4957716;28;46241;-45
2022/09/10 09:39:32;;;;;;;;;5.00;2.00;;;;;21.40;59.03;101301.19;4957703;28;45354;-47
2022/09/10 09:42:36;;;;;;;;;1.60;1.60;;;;;21.37;58.94;101305.16;5001435;28;45432;-47
2022/09/10 09:45:26;;;;;;;;;2.80;2.40;;;;;21.29;58.89;101299.06;5017064;28;45441;-51
2022/09/10 09:47:53;;;;;;;;;1.40;1.00;;;;;21.23;59.22;101299.88;5016861;28;47078;-48
2022/09/10 09:50:19;;;;;;;;;3.60;2.20;;;;;21.10;59.13;101304.19;5016849;28;45436;-46
2022/09/10 09:52:45;;;;;;;;;1.75;1.75;;;;;20.97;59.81;101301.44;5016909;28;45360;-53
2022/09/10 09:55:39;;;;;;;;;4.50;3.50;;;;;20.84;60.28;101314.91;5017111;28;45489;-52
2022/09/10 09:58:19;;;;;;;;;1.20;1.20;;;;;20.71;61.06;101315.69;5015247;28;45450;-49
2022/09/10 10:01:04;;;;;;;;;2.00;2.00;;;;;20.62;61.03;101315.00;5016770;28;45370;-47
2022/09/10 10:03:47;;;;;;;;;4.00;3.00;;;;;20.49;61.87;101319.50;5004884;28;45436;-51
2022/09/10 10:06:13;;;;;;;;;2.20;2.20;;;;;20.32;61.92;101306.25;4996060;28;45354;-46
2022/09/10 10:08:44;;;;;;;;;2.00;2.00;;;;;20.44;62.44;101317.34;4995597;28;47160;-55
2022/09/10 10:11:14;;;;;;;;;2.00;2.00;;;;;20.47;63.10;101325.06;4995830;28;45314;-51
2022/09/10 10:13:42;;;;;;;;;4.20;4.20;;;;;20.57;62.61;101328.28;4996136;28;45307;-51
2022/09/10 10:16:17;;;;;;;;;7.00;5.25;;;;;20.60;62.52;101319.75;4996154;28;45232;-47
2022/09/10 10:18:43;;;;;;;;;9.75;9.00;;;;;20.65;62.51;101313.78;4995643;28;46060;-60
2022/09/10 10:21:09;;;;;;;;;21.25;17.50;;;;;20.64;62.35;101318.31;4995684;28;45410;-50
2022/09/10 10:23:36;;;;;;;;;44.00;35.67;;;;;20.73;61.85;101319.03;4995720;28;45285;-57
2022/09/10 10:26:33;;;;;;;;;9.67;8.00;;;;;20.80;62.14;101324.44;4995884;28;45440;-47
2022/09/10 10:29:05;;;;;;;;;128.75;116.25;;;;;20.70;62.63;101303.19;4995185;28;45373;-47
2022/09/10 10:31:39;;;;;;;;;19.00;15.67;;;;;20.84;61.79;101325.72;4995428;28;45333;-47
2022/09/10 10:34:36;;;;;;;;;12.00;12.00;;;;;20.83;61.75;101322.19;4995721;28;45311;-48
2022/09/10 10:37:16;;;;;;;;;21.00;19.67;;;;;20.87;61.57;101320.75;4995534;28;45405;-50
2022/09/10 10:39:59;;;;;;;;;39.00;34.33;;;;;20.85;61.66;101319.28;4995148;28;46209;-49
2022/09/10 10:43:01;;;;;;;;;22.50;19.25;;;;;20.84;61.93;101314.91;4995159;28;45279;-45
2022/09/10 10:45:48;;;;;;;;;32.67;29.67;;;;;20.92;62.15;101317.44;4995322;28;45319;-50
2022/09/10 10:48:34;;;;;;;;;7.25;7.25;;;;;20.87;61.73;101320.75;4995845;28;45264;-51
2022/09/10 10:51:26;;;;;;;;;7.25;7.25;;;;;20.84;61.95;101320.31;4995289;28;45400;-49
2022/09/10 10:54:09;;;;;;;;;7.00;6.00;;;;;20.92;61.94;101320.16;4995086;28;45350;-50
2022/09/10 10:56:39;;;;;;;;;7.60;6.40;;;;;20.88;61.98;101316.19;4995379;28;45313;-46
2022/09/10 10:59:22;;;;;;;;;5.50;3.75;;;;;20.92;62.84;101317.44;4995517;28;45266;-47
2022/09/10 11:02:12;;;;;;;;;5.75;3.75;;;;;20.98;62.47;101326.63;4995019;28;46370;-49
2022/09/10 11:04:47;;;;;;;;;6.40;4.00;;;;;21.11;62.44;101319.41;4995196;28;45383;-47
2022/09/10 11:07:30;;;;;;;;;7.60;4.00;;;;;21.20;61.93;101321.94;4995081;28;45495;-49
2022/09/10 11:10:11;;;;;;;;;3.50;3.50;;;;;21.33;61.57;101317.44;4995316;28;45332;-47
2022/09/10 11:12:47;;;;;;;;;6.20;4.80;;;;;21.43;61.80;101322.44;4994976;28;45455;-48
2022/09/10 11:15:51;;;;;;;;;3.00;3.00;;;;;21.37;61.73;101317.88;4994972;28;45371;-48
2022/09/10 11:18:41;;;;;;;;;4.40;4.00;;;;;21.33;62.03;101312.03;4995062;28;45324;-46
2022/09/10 11:21:19;;;;;;;;;5.75;4.00;;;;;21.31;62.46;101313.22;4995548;28;45156;-49
2022/09/10 11:23:56;;;;;;;;;5.25;5.00;;;;;21.35;62.49;101309.94;4994804;28;46367;-47
2022/09/10 11:26:32;;;;;;;;;5.40;4.40;;;;;21.48;61.86;101303.72;4994986;28;45386;-52
2022/09/10 11:29:21;;;;;;;;;7.80;3.60;;;;;21.60;61.29;101306.66;4995048;28;45391;-47
2022/09/10 11:31:59;;;;;;;;;7.25;4.50;;;;;21.76;60.71;101305.44;4995352;28;45282;-51
2022/09/10 11:34:33;;;;;;;;;6.00;3.20;;;;;21.91;60.71;101312.34;4994645;28;47393;-47
2022/09/10 11:36:59;;;;;;;;;4.80;3.00;;;;;22.00;60.36;101302.13;4994594;28;45421;-47
2022/09/10 11:39:33;;;;;;;;;6.50;4.00;;;;;22.62;58.98;101311.66;4994673;28;45361;-50
2022/09/10 11:42:05;;;;;;;;;4.40;4.00;;;;;22.89;57.87;101296.16;4995089;28;45351;-50